createdAt,value
2019-04-28T00:00:16.871Z,4.65
2019-04-28T00:05:24.521Z,4.72
2019-04-28T00:10:32.338Z,4.98
2019-04-28T00:15:41.703Z,5.15
2019-04-28T00:20:47.470Z,4.75
2019-04-28T00:25:55.237Z,4.89
2019-04-28T00:31:02.959Z,4.67
2019-04-28T00:36:11.555Z,5.01
2019-04-28T00:41:18.037Z,4.69
2019-04-28T00:46:25.765Z,4.63
2019-04-28T00:51:33.573Z,5.38
2019-04-28T00:56:42.020Z,5.11
2019-04-28T01:01:48.653Z,5.18
2019-04-28T01:06:56.296Z,4.75
2019-04-28T01:12:04.041Z,4.96
2019-04-28T01:17:11.685Z,4.87
2019-04-28T01:22:20.138Z,5.21
2019-04-28T01:27:26.684Z,5.39
2019-04-28T01:32:34.502Z,5.10
2019-04-28T01:37:42.164Z,4.96
2019-04-28T01:42:50.045Z,5.14
2019-04-28T01:47:59.823Z,5.22
2019-04-28T01:53:05.713Z,5.11
2019-04-28T01:58:13.337Z,5.08
2019-04-28T02:03:21.046Z,5.52
2019-04-28T02:08:30.132Z,5.14
2019-04-28T02:13:35.921Z,5.81
2019-04-28T02:18:43.507Z,5.41
2019-04-28T02:23:51.490Z,5.18
2019-04-28T02:29:00.280Z,5.82
2019-04-28T02:34:06.323Z,5.31
2019-04-28T02:39:14.945Z,5.30
2019-04-28T02:44:23.601Z,5.03
2019-04-28T02:49:30.689Z,5.47
2019-04-28T02:54:37.193Z,5.67
2019-04-28T02:59:45.079Z,6.01
2019-04-28T03:04:52.639Z,5.88
2019-04-28T03:10:03.189Z,5.57
2019-04-28T03:15:10.173Z,5.72
2019-04-28T03:20:14.857Z,5.71
2019-04-28T03:25:22.637Z,5.41
2019-04-28T03:30:33.745Z,5.92
2019-04-28T03:35:37.769Z,5.72
2019-04-28T03:40:45.346Z,5.41
2019-04-28T03:45:53.079Z,5.88
2019-04-28T03:51:01.005Z,5.49
2019-04-28T03:56:11.191Z,5.74
2019-04-28T04:01:15.912Z,5.88
2019-04-28T04:06:23.705Z,5.75
2019-04-28T04:11:31.401Z,5.62
2019-04-28T04:16:40.555Z,6.18
2019-04-28T04:21:46.243Z,5.58
2019-04-28T04:26:53.959Z,5.99
2019-04-28T04:32:11.678Z,5.96
2019-04-28T04:37:12.186Z,5.99
2019-04-28T04:42:16.550Z,5.90
2019-04-28T04:47:24.299Z,6.48
2019-04-28T04:52:32.019Z,6.18
2019-04-28T04:57:40.868Z,5.98
2019-04-28T05:02:53.007Z,6.66
2019-04-28T05:07:55.473Z,6.40
2019-04-28T05:13:03.136Z,6.41
2019-04-28T05:18:10.973Z,6.72
2019-04-28T05:23:19.642Z,6.64
2019-04-28T05:28:25.896Z,6.38
2019-04-28T05:33:34.065Z,7.04
2019-04-28T05:38:42.141Z,6.60
2019-04-28T05:43:48.013Z,6.38
2019-04-28T05:48:55.722Z,6.89
2019-04-28T05:54:03.362Z,7.18
2019-04-28T05:59:11.169Z,7.35
2019-04-28T06:04:19.918Z,7.28
2019-04-28T06:09:26.171Z,6.41
2019-04-28T06:14:33.913Z,7.37
2019-04-28T06:19:41.890Z,7.08
2019-04-28T06:24:49.677Z,7.14
2019-04-28T06:29:58.545Z,7.42
2019-04-28T06:35:06.312Z,7.31
2019-04-28T06:40:15.003Z,7.24
2019-04-28T06:45:22.653Z,8.06
2019-04-28T06:50:30.756Z,7.97
2019-04-28T06:55:38.437Z,7.41
2019-04-28T07:00:46.194Z,8.83
2019-04-28T07:05:53.858Z,8.67
2019-04-28T07:11:01.668Z,7.07
2019-04-28T07:16:09.377Z,7.74
2019-04-28T07:21:17.173Z,8.15
2019-04-28T07:26:24.841Z,8.12
2019-04-28T07:31:32.623Z,8.35
2019-04-28T07:36:40.296Z,8.38
2019-04-28T07:41:48.046Z,8.27
2019-04-28T07:46:56.749Z,9.08
2019-04-28T07:52:04.490Z,9.25
2019-04-28T07:57:12.130Z,8.77
2019-04-28T08:02:19.969Z,8.90
2019-04-28T08:07:27.657Z,9.33
2019-04-28T08:12:35.480Z,9.29
2019-04-28T08:17:43.116Z,9.43
2019-04-28T08:22:50.753Z,8.12
2019-04-28T08:27:58.447Z,8.98
2019-04-28T08:33:07.106Z,8.72
2019-04-28T08:38:14.877Z,9.11
2019-04-28T08:43:22.560Z,8.29
2019-04-28T08:48:30.188Z,8.05
2019-04-28T08:53:37.862Z,8.51
2019-04-28T08:58:45.521Z,8.15
2019-04-28T09:03:53.229Z,8.07
2019-04-28T09:09:00.902Z,7.57
2019-04-28T09:14:08.695Z,6.46
2019-04-28T09:19:16.350Z,7.14
2019-04-28T09:24:24.187Z,6.68
2019-04-28T09:29:31.789Z,6.99
2019-04-28T09:34:39.389Z,7.55
2019-04-28T09:39:47.125Z,7.11
2019-04-28T09:44:54.837Z,6.49
2019-04-28T09:50:02.546Z,6.38
2019-04-28T09:55:10.229Z,6.31
2019-04-28T10:00:17.858Z,6.52
2019-04-28T10:05:25.502Z,7.15
2019-04-28T10:10:33.134Z,6.92
2019-04-28T10:15:41.016Z,6.24
2019-04-28T10:20:48.716Z,5.51
2019-04-28T10:25:56.399Z,5.59
2019-04-28T10:31:04.073Z,4.76
2019-04-28T10:36:11.769Z,4.25
2019-04-28T10:41:19.542Z,3.93
2019-04-28T10:46:27.179Z,3.68
2019-04-28T10:51:34.914Z,3.41
2019-04-28T10:56:42.546Z,3.45
2019-04-28T11:01:50.223Z,3.43
2019-04-28T11:06:58.007Z,3.31
2019-04-28T11:12:05.742Z,3.95
2019-04-28T11:17:13.521Z,3.61
2019-04-28T11:22:22.140Z,3.57
2019-04-28T11:27:29.909Z,3.80
2019-04-28T11:32:37.585Z,3.74
2019-04-28T11:37:45.405Z,4.17
2019-04-28T11:42:53.134Z,3.76
2019-04-28T11:48:00.906Z,4.00
2019-04-28T11:53:08.591Z,3.91
2019-04-28T11:58:16.657Z,3.65
2019-04-28T12:03:24.355Z,3.84
2019-04-28T12:08:35.189Z,4.26
2019-04-28T12:13:32.843Z,3.88
2019-04-28T12:18:40.576Z,4.17
2019-04-28T12:23:48.250Z,3.98
2019-04-28T12:28:55.890Z,4.15
2019-04-28T12:34:03.573Z,3.72
2019-04-28T12:39:11.175Z,4.11
2019-04-28T12:44:18.842Z,4.11
2019-04-28T12:49:26.545Z,4.65
2019-04-28T12:54:34.323Z,4.44
2019-04-28T12:59:41.966Z,4.48
2019-04-28T13:04:49.661Z,4.77
2019-04-28T13:09:57.324Z,4.41
2019-04-28T13:15:05.065Z,4.02
2019-04-28T13:20:12.726Z,4.27
2019-04-28T13:25:20.416Z,4.64
2019-04-28T13:30:28.096Z,4.32
2019-04-28T13:35:35.825Z,4.34
2019-04-28T13:40:43.516Z,4.54
2019-04-28T13:45:51.294Z,4.45
2019-04-28T13:50:58.918Z,4.31
2019-04-28T13:56:06.598Z,3.93
2019-04-28T14:01:14.297Z,3.79
2019-04-28T14:06:28.516Z,3.85
2019-04-28T14:11:30.282Z,4.08
2019-04-28T14:16:38.017Z,3.63
2019-04-28T14:21:45.734Z,3.71
2019-04-28T14:26:53.493Z,3.41
2019-04-28T14:32:01.345Z,3.47
2019-04-28T14:37:08.997Z,3.39
2019-04-28T14:42:16.992Z,3.75
2019-04-28T14:47:25.493Z,3.69
2019-04-28T14:52:33.202Z,3.46
2019-04-28T14:57:40.961Z,3.67
2019-04-28T15:02:49.599Z,3.48
2019-04-28T15:07:57.823Z,3.71
2019-04-28T15:13:05.815Z,3.26
2019-04-28T15:18:13.645Z,3.02
2019-04-28T15:23:21.306Z,3.24
2019-04-28T15:28:29.010Z,3.17
2019-04-28T15:33:36.638Z,3.03
2019-04-28T15:38:44.297Z,3.37
2019-04-28T15:43:51.946Z,4.23
2019-04-28T15:48:59.613Z,5.41
2019-04-28T15:54:07.262Z,7.08
2019-04-28T15:59:14.899Z,7.01
2019-04-28T16:04:22.606Z,6.98
2019-04-28T16:09:30.393Z,7.09
2019-04-28T16:14:37.990Z,7.66
2019-04-28T16:19:45.717Z,8.19
2019-04-28T16:24:53.357Z,6.83
2019-04-28T16:30:00.988Z,7.38
2019-04-28T16:35:08.683Z,7.07
2019-04-28T16:40:16.426Z,7.21
2019-04-28T16:45:24.010Z,7.56
2019-04-28T16:50:31.728Z,7.91
2019-04-28T16:55:39.426Z,7.99
2019-04-28T17:00:47.278Z,7.86
2019-04-28T17:05:54.933Z,7.68
2019-04-28T17:11:02.625Z,7.72
2019-04-28T17:16:10.349Z,7.66
2019-04-28T17:21:18.089Z,7.26
2019-04-28T17:26:25.828Z,7.27
2019-04-28T17:31:33.525Z,7.67
2019-04-28T17:36:41.305Z,7.55
2019-04-28T17:41:49.001Z,7.34
2019-04-28T17:46:56.804Z,8.45
2019-04-28T17:52:04.774Z,8.07
2019-04-28T17:57:12.439Z,5.46
2019-04-28T18:02:20.097Z,4.69
2019-04-28T18:07:27.747Z,4.16
2019-04-28T18:12:36.558Z,4.85
2019-04-28T18:17:45.175Z,5.38
2019-04-28T18:22:52.819Z,4.71
2019-04-28T18:28:00.477Z,3.69
2019-04-28T18:33:08.111Z,3.44
2019-04-28T18:38:15.819Z,3.81
2019-04-28T18:43:23.666Z,4.15
2019-04-28T18:48:31.353Z,3.71
2019-04-28T18:53:39.085Z,3.93
2019-04-28T18:58:46.769Z,3.63
2019-04-28T19:03:54.592Z,4.07
2019-04-28T19:09:02.171Z,5.16
2019-04-28T19:14:10.030Z,4.62
2019-04-28T19:19:17.781Z,5.13
2019-04-28T19:24:25.455Z,5.22
2019-04-28T19:29:33.433Z,4.90
2019-04-28T19:34:41.945Z,4.60
2019-04-28T19:39:49.890Z,4.71
2019-04-28T19:44:57.776Z,4.71
2019-04-28T19:50:05.825Z,4.63
2019-04-28T19:55:13.563Z,4.92
2019-04-28T20:00:21.239Z,5.13
2019-04-28T20:05:28.949Z,5.11
2019-04-28T20:10:36.668Z,5.47
2019-04-28T20:15:44.297Z,4.98
2019-04-28T20:20:52.144Z,4.95
2019-04-28T20:26:01.205Z,4.54
2019-04-28T20:31:09.178Z,4.58
2019-04-28T20:36:18.169Z,4.40
2019-04-28T20:41:26.503Z,4.65
2019-04-28T20:46:35.323Z,4.31
2019-04-28T20:51:43.135Z,4.87
2019-04-28T20:56:54.638Z,4.68
2019-04-28T21:01:52.412Z,4.96
2019-04-28T21:07:00.258Z,4.58
2019-04-28T21:12:08.339Z,4.97
2019-04-28T21:17:16.102Z,4.73
2019-04-28T21:22:23.869Z,5.07
2019-04-28T21:27:32.014Z,5.02
2019-04-28T21:32:40.182Z,5.44
2019-04-28T21:37:47.935Z,5.81
2019-04-28T21:42:55.718Z,6.41
2019-04-28T21:48:03.589Z,6.18
2019-04-28T21:53:11.740Z,6.40
2019-04-28T21:58:32.241Z,6.43
2019-04-28T22:03:27.517Z,6.33
2019-04-28T22:08:35.504Z,6.72
2019-04-28T22:13:43.409Z,6.91
2019-04-28T22:18:51.230Z,6.47
2019-04-28T22:23:59.130Z,6.29
2019-04-28T22:29:07.026Z,6.48
2019-04-28T22:34:14.909Z,6.18
2019-04-28T22:39:22.749Z,6.70
2019-04-28T22:44:30.943Z,6.30
2019-04-28T22:49:38.792Z,6.70
2019-04-28T22:54:46.539Z,6.79
2019-04-28T22:59:55.554Z,6.91
2019-04-28T23:05:04.411Z,6.91
2019-04-28T23:10:12.446Z,6.43
2019-04-28T23:15:20.376Z,6.53
2019-04-28T23:20:28.138Z,7.03
2019-04-28T23:25:36.154Z,6.41
2019-04-28T23:30:43.973Z,7.14
2019-04-28T23:35:52.249Z,6.96
2019-04-28T23:41:00.132Z,7.19
2019-04-28T23:46:08.133Z,6.96
2019-04-28T23:51:16.178Z,7.29
2019-04-28T23:56:24.048Z,7.08
